sensor_id;sensor_type;location;lat;lon;timestamp;temperature;humidity
69823;SHT31;57119;52.516;13.508;2022-10-16T00:01:30;12.93;99.99
69823;SHT31;57119;52.516;13.508;2022-10-16T00:03:57;12.96;99.99
69823;SHT31;57119;52.516;13.508;2022-10-16T00:06:24;12.96;99.99
69823;SHT31;57119;52.516;13.508;2022-10-16T00:08:50;12.99;99.99
69823;SHT31;57119;52.516;13.508;2022-10-16T00:11:18;13.07;99.99
69823;SHT31;57119;52.516;13.508;2022-10-16T00:13:46;13.21;99.99
69823;SHT31;57119;52.516;13.508;2022-10-16T00:16:12;13.34;99.99
69823;SHT31;57119;52.516;13.508;2022-10-16T00:18:41;13.40;99.99
69823;SHT31;57119;52.516;13.508;2022-10-16T00:21:10;13.45;99.99
69823;SHT31;57119;52.516;13.508;2022-10-16T00:23:36;13.50;99.99
69823;SHT31;57119;52.516;13.508;2022-10-16T00:26:04;13.55;99.99
69823;SHT31;57119;52.516;13.508;2022-10-16T00:28:30;13.75;99.99
69823;SHT31;57119;52.516;13.508;2022-10-16T00:30:57;13.89;99.99
69823;SHT31;57119;52.516;13.508;2022-10-16T00:33:22;13.93;99.99
69823;SHT31;57119;52.516;13.508;2022-10-16T00:35:48;14.02;99.99
69823;SHT31;57119;52.516;13.508;2022-10-16T00:38:14;14.03;99.99
69823;SHT31;57119;52.516;13.508;2022-10-16T00:40:39;14.14;99.99
69823;SHT31;57119;52.516;13.508;2022-10-16T00:43:32;14.20;99.99
69823;SHT31;57119;52.516;13.508;2022-10-16T00:45:59;14.26;99.99
69823;SHT31;57119;52.516;13.508;2022-10-16T00:48:24;14.31;99.99
69823;SHT31;57119;52.516;13.508;2022-10-16T00:50:50;14.33;99.99
69823;SHT31;57119;52.516;13.508;2022-10-16T00:53:17;14.29;99.99
69823;SHT31;57119;52.516;13.508;2022-10-16T00:55:42;14.26;99.99
69823;SHT31;57119;52.516;13.508;2022-10-16T00:58:08;14.27;99.99
69823;SHT31;57119;52.516;13.508;2022-10-16T01:00:34;14.34;99.99
69823;SHT31;57119;52.516;13.508;2022-10-16T01:03:01;14.34;99.99
69823;SHT31;57119;52.516;13.508;2022-10-16T01:05:32;14.26;99.99
69823;SHT31;57119;52.516;13.508;2022-10-16T01:08:16;14.40;99.99
69823;SHT31;57119;52.516;13.508;2022-10-16T01:11:11;14.42;99.99
69823;SHT31;57119;52.516;13.508;2022-10-16T01:13:42;14.36;99.99
69823;SHT31;57119;52.516;13.508;2022-10-16T01:16:20;14.27;99.99
69823;SHT31;57119;52.516;13.508;2022-10-16T01:18:58;14.33;99.99
69823;SHT31;57119;52.516;13.508;2022-10-16T01:21:35;14.17;99.99
69823;SHT31;57119;52.516;13.508;2022-10-16T01:24:17;14.10;99.99
69823;SHT31;57119;52.516;13.508;2022-10-16T01:26:50;14.05;99.99
69823;SHT31;57119;52.516;13.508;2022-10-16T01:31:58;14.00;99.99
69823;SHT31;57119;52.516;13.508;2022-10-16T01:34:32;13.99;99.99
69823;SHT31;57119;52.516;13.508;2022-10-16T01:37:09;14.02;99.99
69823;SHT31;57119;52.516;13.508;2022-10-16T01:39:38;14.02;99.99
69823;SHT31;57119;52.516;13.508;2022-10-16T01:42:08;14.05;99.99
69823;SHT31;57119;52.516;13.508;2022-10-16T01:44:35;14.03;99.99
69823;SHT31;57119;52.516;13.508;2022-10-16T01:47:02;14.06;99.99
69823;SHT31;57119;52.516;13.508;2022-10-16T01:49:32;14.12;99.99
69823;SHT31;57119;52.516;13.508;2022-10-16T01:52:00;14.02;99.99
69823;SHT31;57119;52.516;13.508;2022-10-16T01:54:28;14.12;99.99
69823;SHT31;57119;52.516;13.508;2022-10-16T01:56:56;14.13;99.99
69823;SHT31;57119;52.516;13.508;2022-10-16T01:59:25;14.10;99.99
69823;SHT31;57119;52.516;13.508;2022-10-16T02:01:55;14.20;99.99
69823;SHT31;57119;52.516;13.508;2022-10-16T02:04:33;14.24;99.99
69823;SHT31;57119;52.516;13.508;2022-10-16T02:06:59;14.31;99.99
69823;SHT31;57119;52.516;13.508;2022-10-16T02:09:25;14.36;99.99
69823;SHT31;57119;52.516;13.508;2022-10-16T02:11:53;14.40;99.99
69823;SHT31;57119;52.516;13.508;2022-10-16T02:14:19;14.48;99.99
69823;SHT31;57119;52.516;13.508;2022-10-16T02:16:47;14.60;99.99
69823;SHT31;57119;52.516;13.508;2022-10-16T02:19:13;14.67;99.99
69823;SHT31;57119;52.516;13.508;2022-10-16T02:21:44;14.67;99.99
69823;SHT31;57119;52.516;13.508;2022-10-16T02:29:32;14.85;99.99
69823;SHT31;57119;52.516;13.508;2022-10-16T02:32:04;14.82;99.99
69823;SHT31;57119;52.516;13.508;2022-10-16T02:34:32;14.79;99.99
69823;SHT31;57119;52.516;13.508;2022-10-16T02:37:00;14.82;99.99
69823;SHT31;57119;52.516;13.508;2022-10-16T02:39:28;14.82;99.99
69823;SHT31;57119;52.516;13.508;2022-10-16T02:41:54;14.77;99.99
69823;SHT31;57119;52.516;13.508;2022-10-16T02:44:19;14.87;99.99
69823;SHT31;57119;52.516;13.508;2022-10-16T02:46:45;14.89;99.99
69823;SHT31;57119;52.516;13.508;2022-10-16T02:49:10;14.91;99.99
69823;SHT31;57119;52.516;13.508;2022-10-16T02:51:35;15.03;99.99
69823;SHT31;57119;52.516;13.508;2022-10-16T02:54:01;14.87;99.99
69823;SHT31;57119;52.516;13.508;2022-10-16T02:56:27;14.93;99.99
69823;SHT31;57119;52.516;13.508;2022-10-16T02:58:52;14.92;99.99
69823;SHT31;57119;52.516;13.508;2022-10-16T03:01:17;14.82;99.99
69823;SHT31;57119;52.516;13.508;2022-10-16T03:03:43;14.91;99.99
69823;SHT31;57119;52.516;13.508;2022-10-16T03:06:08;15.00;99.93
69823;SHT31;57119;52.516;13.508;2022-10-16T03:08:34;14.93;99.96
69823;SHT31;57119;52.516;13.508;2022-10-16T03:10:59;14.98;99.83
69823;SHT31;57119;52.516;13.508;2022-10-16T03:13:25;15.05;99.61
69823;SHT31;57119;52.516;13.508;2022-10-16T03:15:50;15.05;99.57
69823;SHT31;57119;52.516;13.508;2022-10-16T03:18:15;15.08;99.56
69823;SHT31;57119;52.516;13.508;2022-10-16T03:20:42;15.09;99.44
69823;SHT31;57119;52.516;13.508;2022-10-16T03:23:08;14.98;99.64
69823;SHT31;57119;52.516;13.508;2022-10-16T03:25:33;14.89;99.99
69823;SHT31;57119;52.516;13.508;2022-10-16T03:27:59;14.81;99.99
69823;SHT31;57119;52.516;13.508;2022-10-16T03:30:24;14.71;99.99
69823;SHT31;57119;52.516;13.508;2022-10-16T03:32:49;14.64;99.99
69823;SHT31;57119;52.516;13.508;2022-10-16T03:35:19;14.63;99.99
69823;SHT31;57119;52.516;13.508;2022-10-16T03:37:44;14.63;99.99
69823;SHT31;57119;52.516;13.508;2022-10-16T03:40:10;14.54;99.99
69823;SHT31;57119;52.516;13.508;2022-10-16T03:42:35;14.47;99.99
69823;SHT31;57119;52.516;13.508;2022-10-16T03:45:00;14.41;99.99
69823;SHT31;57119;52.516;13.508;2022-10-16T03:47:26;14.42;99.99
69823;SHT31;57119;52.516;13.508;2022-10-16T03:49:51;14.38;99.99
69823;SHT31;57119;52.516;13.508;2022-10-16T03:52:17;14.42;99.99
69823;SHT31;57119;52.516;13.508;2022-10-16T03:54:42;14.37;99.99
69823;SHT31;57119;52.516;13.508;2022-10-16T03:57:07;14.33;99.99
69823;SHT31;57119;52.516;13.508;2022-10-16T03:59:33;14.27;99.99
69823;SHT31;57119;52.516;13.508;2022-10-16T04:01:58;14.26;99.99
69823;SHT31;57119;52.516;13.508;2022-10-16T04:04:23;14.29;99.99
69823;SHT31;57119;52.516;13.508;2022-10-16T04:06:50;14.24;99.99
69823;SHT31;57119;52.516;13.508;2022-10-16T04:09:15;14.23;99.99
69823;SHT31;57119;52.516;13.508;2022-10-16T04:11:40;14.14;99.99
69823;SHT31;57119;52.516;13.508;2022-10-16T04:14:05;14.19;99.99
69823;SHT31;57119;52.516;13.508;2022-10-16T04:16:31;14.10;99.99
69823;SHT31;57119;52.516;13.508;2022-10-16T04:18:56;14.13;99.99
69823;SHT31;57119;52.516;13.508;2022-10-16T04:21:21;14.08;99.99
69823;SHT31;57119;52.516;13.508;2022-10-16T04:23:47;14.10;99.99
69823;SHT31;57119;52.516;13.508;2022-10-16T04:26:13;14.03;99.99
69823;SHT31;57119;52.516;13.508;2022-10-16T04:28:38;14.03;99.99
69823;SHT31;57119;52.516;13.508;2022-10-16T04:31:04;13.98;99.99
69823;SHT31;57119;52.516;13.508;2022-10-16T04:33:30;14.00;99.99
69823;SHT31;57119;52.516;13.508;2022-10-16T04:36:02;13.96;99.99
69823;SHT31;57119;52.516;13.508;2022-10-16T04:38:27;13.89;99.99
69823;SHT31;57119;52.516;13.508;2022-10-16T04:40:53;13.83;99.99
69823;SHT31;57119;52.516;13.508;2022-10-16T04:43:18;13.85;99.99
69823;SHT31;57119;52.516;13.508;2022-10-16T04:45:44;13.79;99.99
69823;SHT31;57119;52.516;13.508;2022-10-16T04:48:09;13.65;99.99
69823;SHT31;57119;52.516;13.508;2022-10-16T04:50:34;13.54;99.99
69823;SHT31;57119;52.516;13.508;2022-10-16T04:53:00;13.47;99.99
69823;SHT31;57119;52.516;13.508;2022-10-16T04:55:25;13.34;99.99
69823;SHT31;57119;52.516;13.508;2022-10-16T04:57:50;13.30;99.99
69823;SHT31;57119;52.516;13.508;2022-10-16T05:00:16;13.23;99.99
69823;SHT31;57119;52.516;13.508;2022-10-16T05:02:41;13.15;99.99
69823;SHT31;57119;52.516;13.508;2022-10-16T05:05:06;13.07;99.99
69823;SHT31;57119;52.516;13.508;2022-10-16T05:07:32;12.99;99.99
69823;SHT31;57119;52.516;13.508;2022-10-16T05:09:57;13.07;99.99
69823;SHT31;57119;52.516;13.508;2022-10-16T05:12:23;13.04;99.99
69823;SHT31;57119;52.516;13.508;2022-10-16T05:14:48;13.13;99.99
69823;SHT31;57119;52.516;13.508;2022-10-16T05:17:13;13.34;99.99
69823;SHT31;57119;52.516;13.508;2022-10-16T05:19:39;13.44;99.99
69823;SHT31;57119;52.516;13.508;2022-10-16T05:22:05;13.47;99.99
69823;SHT31;57119;52.516;13.508;2022-10-16T05:24:30;13.37;99.99
69823;SHT31;57119;52.516;13.508;2022-10-16T05:26:55;13.30;99.99
69823;SHT31;57119;52.516;13.508;2022-10-16T05:29:21;13.21;99.99
69823;SHT31;57119;52.516;13.508;2022-10-16T05:31:46;13.25;99.99
69823;SHT31;57119;52.516;13.508;2022-10-16T05:34:14;13.24;99.99
69823;SHT31;57119;52.516;13.508;2022-10-16T05:36:40;13.18;99.99
69823;SHT31;57119;52.516;13.508;2022-10-16T05:39:05;13.27;99.99
69823;SHT31;57119;52.516;13.508;2022-10-16T05:41:34;13.15;99.99
69823;SHT31;57119;52.516;13.508;2022-10-16T05:43:59;13.31;99.99
69823;SHT31;57119;52.516;13.508;2022-10-16T05:46:24;13.40;99.99
69823;SHT31;57119;52.516;13.508;2022-10-16T05:48:52;13.40;99.99
69823;SHT31;57119;52.516;13.508;2022-10-16T05:51:18;13.48;99.99
69823;SHT31;57119;52.516;13.508;2022-10-16T05:53:43;13.61;99.99
69823;SHT31;57119;52.516;13.508;2022-10-16T05:56:10;13.59;99.99
69823;SHT31;57119;52.516;13.508;2022-10-16T05:58:37;13.59;99.99
69823;SHT31;57119;52.516;13.508;2022-10-16T06:01:05;13.54;99.99
69823;SHT31;57119;52.516;13.508;2022-10-16T06:03:33;13.51;99.99
69823;SHT31;57119;52.516;13.508;2022-10-16T06:05:58;13.44;99.99
69823;SHT31;57119;52.516;13.508;2022-10-16T06:08:24;13.50;99.99
69823;SHT31;57119;52.516;13.508;2022-10-16T06:11:03;13.52;99.99
69823;SHT31;57119;52.516;13.508;2022-10-16T06:13:28;13.59;99.99
69823;SHT31;57119;52.516;13.508;2022-10-16T06:15:57;13.66;99.99
69823;SHT31;57119;52.516;13.508;2022-10-16T06:18:22;13.72;99.99
69823;SHT31;57119;52.516;13.508;2022-10-16T06:20:47;13.78;99.99
69823;SHT31;57119;52.516;13.508;2022-10-16T06:23:12;13.79;99.99
69823;SHT31;57119;52.516;13.508;2022-10-16T06:25:38;13.83;99.99
69823;SHT31;57119;52.516;13.508;2022-10-16T06:28:03;13.90;99.99
69823;SHT31;57119;52.516;13.508;2022-10-16T06:30:28;13.95;99.99
69823;SHT31;57119;52.516;13.508;2022-10-16T06:32:54;13.98;99.99
69823;SHT31;57119;52.516;13.508;2022-10-16T06:35:19;14.05;99.99
69823;SHT31;57119;52.516;13.508;2022-10-16T06:37:45;14.09;99.99
69823;SHT31;57119;52.516;13.508;2022-10-16T06:40:10;14.16;99.99
69823;SHT31;57119;52.516;13.508;2022-10-16T06:42:35;14.19;99.99
69823;SHT31;57119;52.516;13.508;2022-10-16T06:45:01;14.21;99.99
69823;SHT31;57119;52.516;13.508;2022-10-16T06:47:27;14.44;99.99
69823;SHT31;57119;52.516;13.508;2022-10-16T06:49:52;14.42;99.99
69823;SHT31;57119;52.516;13.508;2022-10-16T06:52:17;14.42;99.99
69823;SHT31;57119;52.516;13.508;2022-10-16T06:54:43;14.54;99.99
69823;SHT31;57119;52.516;13.508;2022-10-16T06:57:08;14.51;99.99
69823;SHT31;57119;52.516;13.508;2022-10-16T06:59:33;14.71;99.99
69823;SHT31;57119;52.516;13.508;2022-10-16T07:01:58;14.74;99.99
69823;SHT31;57119;52.516;13.508;2022-10-16T07:04:24;14.74;99.99
69823;SHT31;57119;52.516;13.508;2022-10-16T07:06:49;14.92;99.99
69823;SHT31;57119;52.516;13.508;2022-10-16T07:09:16;15.06;99.90
69823;SHT31;57119;52.516;13.508;2022-10-16T07:11:42;15.19;99.33
69823;SHT31;57119;52.516;13.508;2022-10-16T07:14:16;15.60;98.64
69823;SHT31;57119;52.516;13.508;2022-10-16T07:16:41;15.92;97.55
69823;SHT31;57119;52.516;13.508;2022-10-16T07:19:08;16.18;96.82
69823;SHT31;57119;52.516;13.508;2022-10-16T07:21:34;16.12;96.44
69823;SHT31;57119;52.516;13.508;2022-10-16T07:24:05;16.30;95.83
69823;SHT31;57119;52.516;13.508;2022-10-16T07:26:33;16.19;96.14
69823;SHT31;57119;52.516;13.508;2022-10-16T07:28:58;15.92;96.81
69823;SHT31;57119;52.516;13.508;2022-10-16T07:31:24;15.91;96.84
69823;SHT31;57119;52.516;13.508;2022-10-16T07:33:50;16.34;96.28
69823;SHT31;57119;52.516;13.508;2022-10-16T07:36:17;16.34;95.16
69823;SHT31;57119;52.516;13.508;2022-10-16T07:38:43;16.57;95.14
69823;SHT31;57119;52.516;13.508;2022-10-16T07:41:13;16.70;94.86
69823;SHT31;57119;52.516;13.508;2022-10-16T07:43:39;16.76;94.15
69823;SHT31;57119;52.516;13.508;2022-10-16T07:46:05;16.85;94.11
69823;SHT31;57119;52.516;13.508;2022-10-16T07:48:33;16.63;94.31
69823;SHT31;57119;52.516;13.508;2022-10-16T07:51:04;16.56;94.60
69823;SHT31;57119;52.516;13.508;2022-10-16T07:53:30;16.77;94.30
69823;SHT31;57119;52.516;13.508;2022-10-16T07:56:04;16.76;94.35
69823;SHT31;57119;52.516;13.508;2022-10-16T07:58:31;16.79;94.54
69823;SHT31;57119;52.516;13.508;2022-10-16T08:00:57;16.85;94.05
69823;SHT31;57119;52.516;13.508;2022-10-16T08:03:23;16.74;94.31
69823;SHT31;57119;52.516;13.508;2022-10-16T08:05:49;16.71;94.53
69823;SHT31;57119;52.516;13.508;2022-10-16T08:08:15;16.76;94.35
69823;SHT31;57119;52.516;13.508;2022-10-16T08:10:41;16.98;93.67
69823;SHT31;57119;52.516;13.508;2022-10-16T08:13:06;17.00;93.55
69823;SHT31;57119;52.516;13.508;2022-10-16T08:15:32;16.97;93.59
69823;SHT31;57119;52.516;13.508;2022-10-16T08:17:59;16.98;94.12
69823;SHT31;57119;52.516;13.508;2022-10-16T08:20:26;17.17;93.39
69823;SHT31;57119;52.516;13.508;2022-10-16T08:22:51;17.11;93.17
69823;SHT31;57119;52.516;13.508;2022-10-16T08:25:17;17.11;93.26
69823;SHT31;57119;52.516;13.508;2022-10-16T08:27:42;17.22;92.99
69823;SHT31;57119;52.516;13.508;2022-10-16T08:30:08;17.53;92.21
69823;SHT31;57119;52.516;13.508;2022-10-16T08:32:34;17.49;92.08
69823;SHT31;57119;52.516;13.508;2022-10-16T08:34:59;17.62;91.75
69823;SHT31;57119;52.516;13.508;2022-10-16T08:37:24;17.83;90.90
69823;SHT31;57119;52.516;13.508;2022-10-16T08:39:50;17.61;91.69
69823;SHT31;57119;52.516;13.508;2022-10-16T08:47:26;18.23;89.48
69823;SHT31;57119;52.516;13.508;2022-10-16T08:50:13;17.98;90.09
69823;SHT31;57119;52.516;13.508;2022-10-16T08:52:42;17.91;89.72
69823;SHT31;57119;52.516;13.508;2022-10-16T08:58:11;18.07;89.90
69823;SHT31;57119;52.516;13.508;2022-10-16T09:00:38;17.80;90.21
69823;SHT31;57119;52.516;13.508;2022-10-16T09:14:04;20.06;83.87
69823;SHT31;57119;52.516;13.508;2022-10-16T09:16:34;20.37;82.61
69823;SHT31;57119;52.516;13.508;2022-10-16T09:19:13;20.12;83.25
69823;SHT31;57119;52.516;13.508;2022-10-16T09:21:42;20.47;82.14
69823;SHT31;57119;52.516;13.508;2022-10-16T09:24:14;20.27;81.85
69823;SHT31;57119;52.516;13.508;2022-10-16T09:26:41;20.00;82.76
69823;SHT31;57119;52.516;13.508;2022-10-16T09:29:12;19.61;83.20
69823;SHT31;57119;52.516;13.508;2022-10-16T09:31:38;19.60;82.69
69823;SHT31;57119;52.516;13.508;2022-10-16T09:34:04;20.25;81.38
69823;SHT31;57119;52.516;13.508;2022-10-16T09:36:37;20.50;80.54
69823;SHT31;57119;52.516;13.508;2022-10-16T09:39:07;20.41;80.52
69823;SHT31;57119;52.516;13.508;2022-10-16T09:41:39;20.27;81.10
69823;SHT31;57119;52.516;13.508;2022-10-16T09:44:28;20.87;79.36
69823;SHT31;57119;52.516;13.508;2022-10-16T09:47:04;21.09;77.71
69823;SHT31;57119;52.516;13.508;2022-10-16T09:49:29;22.66;74.88
69823;SHT31;57119;52.516;13.508;2022-10-16T09:52:14;22.44;74.15
69823;SHT31;57119;52.516;13.508;2022-10-16T09:57:24;20.92;77.52
69823;SHT31;57119;52.516;13.508;2022-10-16T09:59:52;20.41;79.40
69823;SHT31;57119;52.516;13.508;2022-10-16T10:02:20;20.61;79.17
69823;SHT31;57119;52.516;13.508;2022-10-16T10:04:52;21.11;77.85
69823;SHT31;57119;52.516;13.508;2022-10-16T10:07:35;22.37;74.65
69823;SHT31;57119;52.516;13.508;2022-10-16T10:10:05;22.69;72.87
69823;SHT31;57119;52.516;13.508;2022-10-16T10:12:32;21.59;75.24
69823;SHT31;57119;52.516;13.508;2022-10-16T10:15:10;22.08;74.77
69823;SHT31;57119;52.516;13.508;2022-10-16T10:17:46;22.17;74.64
69823;SHT31;57119;52.516;13.508;2022-10-16T10:20:22;21.74;75.26
69823;SHT31;57119;52.516;13.508;2022-10-16T10:22:48;21.76;75.52
69823;SHT31;57119;52.516;13.508;2022-10-16T10:30:47;21.25;76.39
69823;SHT31;57119;52.516;13.508;2022-10-16T10:44:06;20.57;77.27
69823;SHT31;57119;52.516;13.508;2022-10-16T10:46:50;21.52;75.94
69823;SHT31;57119;52.516;13.508;2022-10-16T10:49:30;22.93;71.27
69823;SHT31;57119;52.516;13.508;2022-10-16T10:52:28;23.43;69.78
69823;SHT31;57119;52.516;13.508;2022-10-16T10:55:09;23.52;69.84
69823;SHT31;57119;52.516;13.508;2022-10-16T11:06:17;23.85;68.05
69823;SHT31;57119;52.516;13.508;2022-10-16T11:08:50;25.22;64.17
69823;SHT31;57119;52.516;13.508;2022-10-16T11:11:25;25.18;64.23
69823;SHT31;57119;52.516;13.508;2022-10-16T11:16:58;24.94;63.93
69823;SHT31;57119;52.516;13.508;2022-10-16T11:22:34;23.13;66.11
69823;SHT31;57119;52.516;13.508;2022-10-16T11:30:18;22.56;68.12
69823;SHT31;57119;52.516;13.508;2022-10-16T11:33:12;22.44;68.03
69823;SHT31;57119;52.516;13.508;2022-10-16T11:35:49;22.56;67.43
69823;SHT31;57119;52.516;13.508;2022-10-16T11:40:48;23.21;65.77
69823;SHT31;57119;52.516;13.508;2022-10-16T11:45:59;25.30;60.49
69823;SHT31;57119;52.516;13.508;2022-10-16T11:53:57;25.27;58.00
69823;SHT31;57119;52.516;13.508;2022-10-16T11:56:24;23.78;62.05
69823;SHT31;57119;52.516;13.508;2022-10-16T11:59:12;22.92;63.54
69823;SHT31;57119;52.516;13.508;2022-10-16T12:01:49;22.63;64.77
69823;SHT31;57119;52.516;13.508;2022-10-16T12:04:20;22.62;64.50
69823;SHT31;57119;52.516;13.508;2022-10-16T12:07:14;22.85;63.43
69823;SHT31;57119;52.516;13.508;2022-10-16T12:09:41;22.63;63.77
69823;SHT31;57119;52.516;13.508;2022-10-16T12:12:37;22.28;64.16
69823;SHT31;57119;52.516;13.508;2022-10-16T12:15:27;22.04;64.43
69823;SHT31;57119;52.516;13.508;2022-10-16T12:17:54;23.57;61.64
69823;SHT31;57119;52.516;13.508;2022-10-16T12:20:26;25.98;56.45
69823;SHT31;57119;52.516;13.508;2022-10-16T12:23:04;27.30;53.34
69823;SHT31;57119;52.516;13.508;2022-10-16T12:25:34;27.65;52.27
69823;SHT31;57119;52.516;13.508;2022-10-16T12:28:19;28.09;50.79
69823;SHT31;57119;52.516;13.508;2022-10-16T12:30:55;28.51;49.79
69823;SHT31;57119;52.516;13.508;2022-10-16T12:33:23;27.92;50.60
69823;SHT31;57119;52.516;13.508;2022-10-16T12:35:50;28.03;50.64
69823;SHT31;57119;52.516;13.508;2022-10-16T12:38:20;27.21;50.76
69823;SHT31;57119;52.516;13.508;2022-10-16T12:40:56;26.05;54.45
69823;SHT31;57119;52.516;13.508;2022-10-16T12:48:37;29.23;48.41
69823;SHT31;57119;52.516;13.508;2022-10-16T12:51:25;29.74;47.18
69823;SHT31;57119;52.516;13.508;2022-10-16T12:54:25;30.77;46.08
69823;SHT31;57119;52.516;13.508;2022-10-16T12:59:51;30.02;46.99
69823;SHT31;57119;52.516;13.508;2022-10-16T13:10:35;30.42;44.87
69823;SHT31;57119;52.516;13.508;2022-10-16T13:24:30;29.82;45.45
69823;SHT31;57119;52.516;13.508;2022-10-16T13:29:54;30.97;44.63
69823;SHT31;57119;52.516;13.508;2022-10-16T13:32:29;31.92;43.16
69823;SHT31;57119;52.516;13.508;2022-10-16T13:34:58;30.00;45.38
69823;SHT31;57119;52.516;13.508;2022-10-16T13:37:25;29.31;46.60
69823;SHT31;57119;52.516;13.508;2022-10-16T13:40:06;27.14;49.91
69823;SHT31;57119;52.516;13.508;2022-10-16T13:42:32;25.04;54.67
69823;SHT31;57119;52.516;13.508;2022-10-16T13:44:58;26.00;53.62
69823;SHT31;57119;52.516;13.508;2022-10-16T13:47:26;27.33;50.56
69823;SHT31;57119;52.516;13.508;2022-10-16T13:50:09;28.48;48.50
69823;SHT31;57119;52.516;13.508;2022-10-16T13:52:36;29.12;47.20
69823;SHT31;57119;52.516;13.508;2022-10-16T13:55:04;29.12;46.55
69823;SHT31;57119;52.516;13.508;2022-10-16T13:57:29;28.28;48.35
69823;SHT31;57119;52.516;13.508;2022-10-16T13:59:54;27.11;49.97
69823;SHT31;57119;52.516;13.508;2022-10-16T14:02:22;26.24;51.88
69823;SHT31;57119;52.516;13.508;2022-10-16T14:04:49;27.54;49.71
69823;SHT31;57119;52.516;13.508;2022-10-16T14:07:20;25.29;53.44
69823;SHT31;57119;52.516;13.508;2022-10-16T14:09:50;24.24;56.67
69823;SHT31;57119;52.516;13.508;2022-10-16T14:12:16;25.19;54.64
69823;SHT31;57119;52.516;13.508;2022-10-16T14:14:43;26.06;52.47
69823;SHT31;57119;52.516;13.508;2022-10-16T14:17:14;24.95;53.73
69823;SHT31;57119;52.516;13.508;2022-10-16T14:19:40;26.69;52.18
69823;SHT31;57119;52.516;13.508;2022-10-16T14:25:21;28.28;48.82
69823;SHT31;57119;52.516;13.508;2022-10-16T14:28:18;28.94;48.01
69823;SHT31;57119;52.516;13.508;2022-10-16T14:30:55;28.18;48.91
69823;SHT31;57119;52.516;13.508;2022-10-16T14:36:03;26.76;50.98
69823;SHT31;57119;52.516;13.508;2022-10-16T14:38:30;25.42;53.83
69823;SHT31;57119;52.516;13.508;2022-10-16T14:40:58;24.34;56.04
69823;SHT31;57119;52.516;13.508;2022-10-16T14:43:35;22.58;60.16
69823;SHT31;57119;52.516;13.508;2022-10-16T14:46:03;24.29;57.19
69823;SHT31;57119;52.516;13.508;2022-10-16T14:48:29;24.95;55.25
69823;SHT31;57119;52.516;13.508;2022-10-16T14:50:55;26.04;53.94
69823;SHT31;57119;52.516;13.508;2022-10-16T14:53:20;27.01;51.97
69823;SHT31;57119;52.516;13.508;2022-10-16T14:55:45;26.72;51.98
69823;SHT31;57119;52.516;13.508;2022-10-16T14:58:19;25.46;54.29
69823;SHT31;57119;52.516;13.508;2022-10-16T15:00:46;24.17;56.50
69823;SHT31;57119;52.516;13.508;2022-10-16T15:03:12;22.39;60.08
69823;SHT31;57119;52.516;13.508;2022-10-16T15:05:37;21.38;62.45
69823;SHT31;57119;52.516;13.508;2022-10-16T15:08:03;20.99;63.58
69823;SHT31;57119;52.516;13.508;2022-10-16T15:10:30;20.71;64.76
69823;SHT31;57119;52.516;13.508;2022-10-16T15:12:57;20.47;65.16
69823;SHT31;57119;52.516;13.508;2022-10-16T15:17:52;20.10;66.27
69823;SHT31;57119;52.516;13.508;2022-10-16T15:20:20;19.92;66.83
69823;SHT31;57119;52.516;13.508;2022-10-16T15:22:46;19.82;67.04
69823;SHT31;57119;52.516;13.508;2022-10-16T15:25:38;19.68;67.30
69823;SHT31;57119;52.516;13.508;2022-10-16T15:28:07;19.55;67.88
69823;SHT31;57119;52.516;13.508;2022-10-16T15:30:34;19.46;68.36
69823;SHT31;57119;52.516;13.508;2022-10-16T15:33:00;19.34;68.58
69823;SHT31;57119;52.516;13.508;2022-10-16T15:35:25;19.23;68.91
69823;SHT31;57119;52.516;13.508;2022-10-16T15:37:51;19.12;69.39
69823;SHT31;57119;52.516;13.508;2022-10-16T15:40:17;19.03;70.83
69823;SHT31;57119;52.516;13.508;2022-10-16T15:42:43;18.85;70.33
69823;SHT31;57119;52.516;13.508;2022-10-16T15:45:10;18.73;70.61
69823;SHT31;57119;52.516;13.508;2022-10-16T15:47:36;18.68;70.57
69823;SHT31;57119;52.516;13.508;2022-10-16T15:50:01;18.62;70.56
69823;SHT31;57119;52.516;13.508;2022-10-16T15:52:26;18.59;70.87
69823;SHT31;57119;52.516;13.508;2022-10-16T15:54:54;18.52;70.77
69823;SHT31;57119;52.516;13.508;2022-10-16T15:57:19;18.40;71.02
69823;SHT31;57119;52.516;13.508;2022-10-16T15:59:44;18.33;71.94
69823;SHT31;57119;52.516;13.508;2022-10-16T16:02:10;18.24;71.04
69823;SHT31;57119;52.516;13.508;2022-10-16T16:04:35;18.20;71.24
69823;SHT31;57119;52.516;13.508;2022-10-16T16:07:00;18.11;71.31
69823;SHT31;57119;52.516;13.508;2022-10-16T16:09:29;18.03;71.49
69823;SHT31;57119;52.516;13.508;2022-10-16T16:11:54;17.89;72.15
69823;SHT31;57119;52.516;13.508;2022-10-16T16:14:20;17.76;72.35
69823;SHT31;57119;52.516;13.508;2022-10-16T16:16:45;17.56;72.73
69823;SHT31;57119;52.516;13.508;2022-10-16T16:19:10;17.48;73.78
69823;SHT31;57119;52.516;13.508;2022-10-16T16:21:36;17.29;73.76
69823;SHT31;57119;52.516;13.508;2022-10-16T16:24:01;17.22;73.87
69823;SHT31;57119;52.516;13.508;2022-10-16T16:26:33;17.08;74.66
69823;SHT31;57119;52.516;13.508;2022-10-16T16:29:05;16.95;74.83
69823;SHT31;57119;52.516;13.508;2022-10-16T16:31:32;16.83;75.19
69823;SHT31;57119;52.516;13.508;2022-10-16T16:33:58;16.61;76.33
69823;SHT31;57119;52.516;13.508;2022-10-16T16:36:24;16.43;77.85
69823;SHT31;57119;52.516;13.508;2022-10-16T16:38:50;16.21;78.33
69823;SHT31;57119;52.516;13.508;2022-10-16T16:41:17;16.01;79.95
69823;SHT31;57119;52.516;13.508;2022-10-16T16:43:43;15.81;80.99
69823;SHT31;57119;52.516;13.508;2022-10-16T16:46:09;15.53;80.68
69823;SHT31;57119;52.516;13.508;2022-10-16T16:48:35;15.36;82.69
69823;SHT31;57119;52.516;13.508;2022-10-16T16:51:07;15.16;81.84
69823;SHT31;57119;52.516;13.508;2022-10-16T16:53:36;15.00;83.20
69823;SHT31;57119;52.516;13.508;2022-10-16T16:56:05;14.84;83.90
69823;SHT31;57119;52.516;13.508;2022-10-16T16:58:31;14.78;84.16
69823;SHT31;57119;52.516;13.508;2022-10-16T17:00:58;14.71;84.41
69823;SHT31;57119;52.516;13.508;2022-10-16T17:03:28;14.60;83.31
69823;SHT31;57119;52.516;13.508;2022-10-16T17:06:01;14.57;83.57
69823;SHT31;57119;52.516;13.508;2022-10-16T17:08:27;14.52;83.94
69823;SHT31;57119;52.516;13.508;2022-10-16T17:10:53;14.47;84.06
69823;SHT31;57119;52.516;13.508;2022-10-16T17:13:25;14.45;84.90
69823;SHT31;57119;52.516;13.508;2022-10-16T17:15:52;14.36;85.51
69823;SHT31;57119;52.516;13.508;2022-10-16T17:18:18;14.19;86.61
69823;SHT31;57119;52.516;13.508;2022-10-16T17:20:44;14.02;86.90